TimeCST,TemperatureF,Dew PointF,Humidity,Sea Level PressureIn,VisibilityMPH,Wind Direction,Wind SpeedMPH,Gust SpeedMPH,PrecipitationIn,Events,Conditions,WindDirDegrees,DateUTC
12:13 AM,10.4,8.6,92,30.03,10.0,Calm,Calm,-,N/A,,Mostly Cloudy,0,2013-01-05 06:13:00
12:34 AM,12.2,8.6,85,30.02,10.0,Calm,Calm,-,N/A,,Mostly Cloudy,0,2013-01-05 06:34:00
12:53 AM,14.0,10.4,86,30.04,10.0,Calm,Calm,-,N/A,,Mostly Cloudy,0,2013-01-05 06:53:00
1:13 AM,10.4,6.8,85,30.04,10.0,Calm,Calm,-,N/A,,Mostly Cloudy,0,2013-01-05 07:13:00
1:34 AM,12.2,8.6,85,30.03,10.0,Calm,Calm,-,N/A,,Mostly Cloudy,0,2013-01-05 07:34:00
1:53 AM,10.4,6.8,85,30.03,10.0,Calm,Calm,-,N/A,,Overcast,0,2013-01-05 07:53:00
2:14 AM,10.4,6.8,85,30.04,10.0,Calm,Calm,-,N/A,,Overcast,0,2013-01-05 08:14:00
2:34 AM,10.4,6.8,85,30.03,10.0,Calm,Calm,-,N/A,,Overcast,0,2013-01-05 08:34:00
2:53 AM,14.0,8.6,79,30.03,10.0,Calm,Calm,-,N/A,,Overcast,0,2013-01-05 08:53:00
3:14 AM,15.8,10.4,79,30.03,10.0,ESE,3.5,-,N/A,,Overcast,110,2013-01-05 09:14:00
3:34 AM,17.6,12.2,79,30.02,10.0,ESE,3.5,-,N/A,,Overcast,120,2013-01-05 09:34:00
3:53 AM,17.6,12.2,79,30.02,10.0,SE,3.5,-,N/A,,Overcast,130,2013-01-05 09:53:00
4:13 AM,17.6,12.2,79,30.02,10.0,SE,3.5,-,N/A,,Overcast,140,2013-01-05 10:13:00
4:34 AM,19.4,12.2,74,30.01,10.0,ESE,3.5,-,N/A,,Overcast,120,2013-01-05 10:34:00
4:53 AM,19.4,14.0,80,30.00,10.0,SE,4.6,-,N/A,,Overcast,130,2013-01-05 10:53:00
5:13 AM,19.4,14.0,80,30.00,10.0,SE,4.6,-,N/A,,Overcast,130,2013-01-05 11:13:00
5:53 AM,19.4,15.8,86,30.00,10.0,ESE,5.8,-,N/A,,Overcast,110,2013-01-05 11:53:00
6:13 AM,19.4,15.8,86,29.99,10.0,ESE,4.6,-,N/A,,Overcast,120,2013-01-05 12:13:00
6:34 AM,19.4,15.8,86,29.99,10.0,ESE,3.5,-,N/A,,Overcast,120,2013-01-05 12:34:00
6:53 AM,19.4,15.8,86,29.99,10.0,ESE,4.6,-,N/A,,Overcast,120,2013-01-05 12:53:00
7:34 AM,19.4,17.6,93,29.97,7.0,ESE,4.6,-,N/A,,Overcast,110,2013-01-05 13:34:00
7:53 AM,19.4,17.6,93,29.96,7.0,East,5.8,-,N/A,,Overcast,100,2013-01-05 13:53:00
8:14 AM,19.4,17.6,93,29.95,10.0,East,5.8,-,N/A,,Overcast,80,2013-01-05 14:14:00
8:34 AM,19.4,17.6,93,29.95,10.0,ENE,5.8,-,N/A,,Overcast,70,2013-01-05 14:34:00
8:53 AM,19.4,17.6,93,29.95,10.0,East,4.6,-,N/A,,Overcast,80,2013-01-05 14:53:00
9:14 AM,19.4,17.6,93,29.95,10.0,ENE,3.5,-,N/A,,Overcast,70,2013-01-05 15:14:00
9:53 AM,21.2,17.6,86,29.95,10.0,ESE,8.1,-,N/A,,Overcast,110,2013-01-05 15:53:00
10:13 AM,21.2,19.4,93,29.94,10.0,East,6.9,-,N/A,,Overcast,90,2013-01-05 16:13:00
10:54 AM,23.0,19.4,86,29.93,10.0,East,6.9,-,N/A,,Overcast,100,2013-01-05 16:54:00
11:14 AM,23.0,19.4,86,29.92,10.0,East,3.5,-,N/A,,Overcast,100,2013-01-05 17:14:00
11:34 AM,23.0,19.4,86,29.91,10.0,East,3.5,-,N/A,,Overcast,100,2013-01-05 17:34:00
11:54 AM,24.8,19.4,80,29.89,10.0,East,6.9,-,N/A,,Overcast,100,2013-01-05 17:54:00
12:13 PM,24.8,19.4,80,29.88,10.0,ESE,5.8,-,N/A,,Overcast,110,2013-01-05 18:13:00
12:34 PM,24.8,19.4,80,29.87,10.0,ESE,3.5,-,N/A,,Overcast,110,2013-01-05 18:34:00
12:53 PM,24.8,17.6,74,29.85,10.0,East,4.6,-,N/A,,Overcast,90,2013-01-05 18:53:00
1:14 PM,24.8,17.6,74,29.84,10.0,East,4.6,-,N/A,,Overcast,100,2013-01-05 19:14:00
1:34 PM,24.8,17.6,74,29.84,10.0,East,4.6,-,N/A,,Overcast,90,2013-01-05 19:34:00
1:53 PM,24.8,17.6,74,29.83,10.0,East,5.8,-,N/A,,Overcast,90,2013-01-05 19:53:00
2:14 PM,23.0,17.6,80,29.83,10.0,NE,4.6,-,N/A,,Overcast,40,2013-01-05 20:14:00
2:34 PM,23.0,17.6,80,29.83,10.0,North,4.6,-,N/A,,Overcast,10,2013-01-05 20:34:00
2:53 PM,23.0,15.8,74,29.82,10.0,NNE,5.8,-,N/A,,Overcast,30,2013-01-05 20:53:00
3:13 PM,23.0,17.6,80,29.82,10.0,NE,3.5,-,N/A,,Overcast,40,2013-01-05 21:13:00
3:34 PM,21.2,17.6,86,29.82,10.0,NNE,5.8,-,N/A,,Overcast,20,2013-01-05 21:34:00
3:53 PM,21.2,15.8,80,29.83,10.0,NNE,9.2,-,N/A,,Overcast,20,2013-01-05 21:53:00
4:13 PM,21.2,15.8,80,29.82,10.0,North,6.9,-,N/A,,Overcast,360,2013-01-05 22:13:00
4:53 PM,21.2,14.0,74,29.82,10.0,North,8.1,-,N/A,,Overcast,10,2013-01-05 22:53:00
5:13 PM,19.4,14.0,80,29.82,10.0,NNE,5.8,-,N/A,,Overcast,20,2013-01-05 23:13:00
5:34 PM,19.4,12.2,74,29.82,10.0,North,9.2,-,N/A,,Overcast,350,2013-01-05 23:34:00
5:53 PM,19.4,12.2,74,29.83,10.0,North,6.9,10.4,N/A,,Overcast,360,2013-01-05 23:53:00
6:14 PM,19.4,12.2,74,29.84,10.0,North,9.2,-,N/A,,Overcast,360,2013-01-06 00:14:00
6:34 PM,19.4,12.2,74,29.84,10.0,North,6.9,-,N/A,,Overcast,360,2013-01-06 00:34:00
6:53 PM,19.4,12.2,74,29.84,10.0,North,5.8,-,N/A,,Overcast,360,2013-01-06 00:53:00
7:14 PM,19.4,12.2,74,29.84,10.0,North,5.8,-,N/A,,Overcast,360,2013-01-06 01:14:00
7:34 PM,19.4,12.2,74,29.84,10.0,NNW,4.6,-,N/A,,Overcast,340,2013-01-06 01:34:00
7:53 PM,19.4,12.2,74,29.84,10.0,NW,5.8,-,N/A,,Overcast,320,2013-01-06 01:53:00
8:14 PM,19.4,12.2,74,29.84,10.0,NNW,4.6,-,N/A,,Overcast,330,2013-01-06 02:14:00
8:34 PM,19.4,12.2,74,29.84,10.0,NNW,5.8,-,N/A,,Overcast,340,2013-01-06 02:34:00
8:53 PM,19.4,12.2,74,29.84,10.0,NNW,5.8,-,N/A,,Overcast,330,2013-01-06 02:53:00
9:13 PM,19.4,12.2,74,29.84,10.0,NNW,6.9,-,N/A,,Overcast,340,2013-01-06 03:13:00
9:34 PM,19.4,14.0,80,29.84,10.0,NNW,8.1,-,N/A,,Overcast,340,2013-01-06 03:34:00
9:53 PM,19.4,14.0,80,29.84,10.0,NNW,9.2,-,N/A,,Overcast,340,2013-01-06 03:53:00
10:13 PM,19.4,15.8,86,29.85,10.0,NNW,5.8,-,N/A,,Overcast,330,2013-01-06 04:13:00
10:34 PM,19.4,14.0,80,29.85,10.0,NNW,8.1,-,N/A,,Overcast,330,2013-01-06 04:34:00
10:53 PM,19.4,15.8,86,29.85,10.0,NNW,8.1,-,N/A,,Overcast,330,2013-01-06 04:53:00
11:14 PM,19.4,14.0,80,29.85,10.0,NNW,10.4,-,N/A,,Overcast,330,2013-01-06 05:14:00
11:33 PM,19.4,14.0,80,29.85,10.0,NNW,12.7,-,N/A,,Mostly Cloudy,340,2013-01-06 05:33:00